Albion, NY (14411)

11:42 AM EST on December 21, 2014 (GMT -0500)
Orleans Poverty Hill Farms | Change Station
CLOSE
Current Station
Personal Weather Station
Location: Albion, NY
Elevation: 597 ft
Nearby Weather Stations

Elev 597 ft 43.22 °N, 78.24 °W | Updated 2 days ago

Partly Cloudy
Partly Cloudy
34 °F
Feels Like 34 °F
N
3
Wind Variable Wind from West
Gusts 5 mph

Today
High -- | Low -- °F
--% Chance of Precip.
Yesterday
High -- | Low -- °F
Precip. -- in
7:41 AM 4:40 PM
Waning Crescent, 0% visible
Pressure 30.36 in
Visibility 10.0 miles
Clouds Scattered Clouds 7500 ft
Dew Point 21 °F
Humidity 63%
Rainfall 0.00 in
Snow Depth Not available.
UV 1 out of 12
Pollen .10 out of 12
Air Quality Not available.
Flu Activity Not available.
METAR KROC 211554Z 25005KT 10SM SCT075 01/M04 A3032 RMK AO2 SLP279 T00111044

More Conditions Fewer Conditions

Pressure 30.36 in
Visibility 10.0 miles
Clouds Scattered Clouds 7500 ft
Dew Point 21 °F
Humidity 63%
Rainfall 0.00 in
Snow Depth Not available.
UV 1 out of 12
Pollen .10 out of 12
Air Quality Not available.
Flu Activity Not available.
METAR KROC 211554Z 25005KT 10SM SCT075 01/M04 A3032 RMK AO2 SLP279 T00111044

More Conditions Fewer Conditions

10-Day Weather Forecast

Almanac

Astronomy

Dec. 21, 2014 Rise Set
Actual Time
Civil Twilight
Nautical Twilight
Astronomical Twilight
Moon
Length of Visible Light
Length of Day
Tomorrow will be .
, % of the Moon is Illuminated

Today's Extremes

State Highs State Lows

Community

WunderPhotos

Upload Photos

1,779,433 photos uploaded!

WunderBlogs® & News

Nearby

Air Quality

  Air Quality AQ Index Pollutant
Not available.

Snow Depth

Station Depth Elevation

Earthquake Activity

City Distance Mag. Time & Date
Minimum magnitude displayed is 2.5.

Coastal Water Temperatures

Place Temperature

Nearby Weather Stations